sensor_id;sensor_type;location;lat;lon;timestamp;P1;durP1;ratioP1;P2;durP2;ratioP2
37903;SDS011;23738;50.422;18.758;2023-11-19T00:00:54;81.40;;;34.70;;
37903;SDS011;23738;50.422;18.758;2023-11-19T00:03:24;92.30;;;37.50;;
37903;SDS011;23738;50.422;18.758;2023-11-19T00:05:54;87.70;;;36.10;;
37903;SDS011;23738;50.422;18.758;2023-11-19T00:08:24;99.50;;;42.90;;
37903;SDS011;23738;50.422;18.758;2023-11-19T00:10:55;110.70;;;48.30;;
37903;SDS011;23738;50.422;18.758;2023-11-19T00:13:24;119.00;;;50.30;;
37903;SDS011;23738;50.422;18.758;2023-11-19T00:15:54;132.70;;;52.10;;
37903;SDS011;23738;50.422;18.758;2023-11-19T00:18:24;108.20;;;42.10;;
37903;SDS011;23738;50.422;18.758;2023-11-19T00:20:54;106.50;;;44.20;;
37903;SDS011;23738;50.422;18.758;2023-11-19T00:23:24;100.10;;;44.10;;
37903;SDS011;23738;50.422;18.758;2023-11-19T00:25:53;106.00;;;46.30;;
37903;SDS011;23738;50.422;18.758;2023-11-19T00:28:23;110.80;;;49.40;;
37903;SDS011;23738;50.422;18.758;2023-11-19T00:30:52;124.80;;;54.00;;
37903;SDS011;23738;50.422;18.758;2023-11-19T00:33:22;140.70;;;60.40;;
37903;SDS011;23738;50.422;18.758;2023-11-19T00:35:52;125.20;;;54.40;;
37903;SDS011;23738;50.422;18.758;2023-11-19T00:38:22;122.20;;;49.80;;
37903;SDS011;23738;50.422;18.758;2023-11-19T00:40:52;107.50;;;48.00;;
37903;SDS011;23738;50.422;18.758;2023-11-19T00:43:21;120.60;;;48.70;;
37903;SDS011;23738;50.422;18.758;2023-11-19T00:45:52;113.50;;;49.40;;
37903;SDS011;23738;50.422;18.758;2023-11-19T00:48:22;131.10;;;53.30;;
37903;SDS011;23738;50.422;18.758;2023-11-19T00:50:52;124.10;;;53.40;;
37903;SDS011;23738;50.422;18.758;2023-11-19T00:53:21;133.70;;;56.50;;
37903;SDS011;23738;50.422;18.758;2023-11-19T00:55:51;135.10;;;59.90;;
37903;SDS011;23738;50.422;18.758;2023-11-19T00:58:20;125.80;;;56.00;;
37903;SDS011;23738;50.422;18.758;2023-11-19T01:00:50;110.80;;;48.90;;
37903;SDS011;23738;50.422;18.758;2023-11-19T01:03:20;114.70;;;48.60;;
37903;SDS011;23738;50.422;18.758;2023-11-19T01:05:49;111.30;;;48.50;;
37903;SDS011;23738;50.422;18.758;2023-11-19T01:08:20;107.90;;;47.20;;
37903;SDS011;23738;50.422;18.758;2023-11-19T01:10:51;98.20;;;44.00;;
37903;SDS011;23738;50.422;18.758;2023-11-19T01:13:20;99.20;;;45.90;;
37903;SDS011;23738;50.422;18.758;2023-11-19T01:15:51;98.10;;;46.20;;
37903;SDS011;23738;50.422;18.758;2023-11-19T01:18:22;95.10;;;47.10;;
37903;SDS011;23738;50.422;18.758;2023-11-19T01:20:52;101.90;;;47.50;;
37903;SDS011;23738;50.422;18.758;2023-11-19T01:23:22;101.10;;;43.60;;
37903;SDS011;23738;50.422;18.758;2023-11-19T01:25:51;101.40;;;44.30;;
37903;SDS011;23738;50.422;18.758;2023-11-19T01:28:21;103.60;;;44.70;;
37903;SDS011;23738;50.422;18.758;2023-11-19T01:30:51;100.30;;;44.80;;
37903;SDS011;23738;50.422;18.758;2023-11-19T01:33:21;112.10;;;49.20;;
37903;SDS011;23738;50.422;18.758;2023-11-19T01:35:51;115.00;;;51.50;;
37903;SDS011;23738;50.422;18.758;2023-11-19T01:38:21;117.90;;;50.70;;
37903;SDS011;23738;50.422;18.758;2023-11-19T01:40:50;124.80;;;53.90;;
37903;SDS011;23738;50.422;18.758;2023-11-19T01:43:35;113.70;;;54.00;;
37903;SDS011;23738;50.422;18.758;2023-11-19T01:46:08;117.70;;;48.40;;
37903;SDS011;23738;50.422;18.758;2023-11-19T01:48:39;106.30;;;44.20;;
37903;SDS011;23738;50.422;18.758;2023-11-19T01:51:12;111.50;;;46.20;;
37903;SDS011;23738;50.422;18.758;2023-11-19T01:53:44;110.20;;;48.10;;
37903;SDS011;23738;50.422;18.758;2023-11-19T01:56:14;109.20;;;48.10;;
37903;SDS011;23738;50.422;18.758;2023-11-19T01:58:44;110.50;;;50.00;;
37903;SDS011;23738;50.422;18.758;2023-11-19T02:01:16;113.50;;;50.00;;
37903;SDS011;23738;50.422;18.758;2023-11-19T02:03:46;114.70;;;53.00;;
37903;SDS011;23738;50.422;18.758;2023-11-19T02:06:16;127.00;;;53.10;;
37903;SDS011;23738;50.422;18.758;2023-11-19T02:08:46;118.60;;;47.80;;
37903;SDS011;23738;50.422;18.758;2023-11-19T02:11:15;115.90;;;46.80;;
37903;SDS011;23738;50.422;18.758;2023-11-19T02:13:45;117.20;;;45.50;;
37903;SDS011;23738;50.422;18.758;2023-11-19T02:16:15;113.90;;;45.40;;
37903;SDS011;23738;50.422;18.758;2023-11-19T02:18:45;113.40;;;46.10;;
37903;SDS011;23738;50.422;18.758;2023-11-19T02:21:15;108.10;;;46.70;;
37903;SDS011;23738;50.422;18.758;2023-11-19T02:23:44;114.80;;;47.70;;
37903;SDS011;23738;50.422;18.758;2023-11-19T02:26:17;119.30;;;49.40;;
37903;SDS011;23738;50.422;18.758;2023-11-19T02:28:52;113.30;;;47.20;;
37903;SDS011;23738;50.422;18.758;2023-11-19T02:31:21;106.90;;;43.60;;
37903;SDS011;23738;50.422;18.758;2023-11-19T02:33:51;111.40;;;42.90;;
37903;SDS011;23738;50.422;18.758;2023-11-19T02:36:21;100.70;;;42.50;;
37903;SDS011;23738;50.422;18.758;2023-11-19T02:38:51;109.90;;;42.60;;
37903;SDS011;23738;50.422;18.758;2023-11-19T02:41:21;97.40;;;42.10;;
37903;SDS011;23738;50.422;18.758;2023-11-19T02:43:51;105.70;;;43.00;;
37903;SDS011;23738;50.422;18.758;2023-11-19T02:46:20;98.90;;;43.50;;
37903;SDS011;23738;50.422;18.758;2023-11-19T02:48:50;101.00;;;43.70;;
37903;SDS011;23738;50.422;18.758;2023-11-19T02:51:20;100.90;;;43.80;;
37903;SDS011;23738;50.422;18.758;2023-11-19T02:53:49;88.00;;;40.30;;
37903;SDS011;23738;50.422;18.758;2023-11-19T02:56:19;96.00;;;39.30;;
37903;SDS011;23738;50.422;18.758;2023-11-19T02:58:52;86.70;;;38.60;;
37903;SDS011;23738;50.422;18.758;2023-11-19T03:01:25;85.40;;;38.40;;
37903;SDS011;23738;50.422;18.758;2023-11-19T03:03:58;71.00;;;31.00;;
37903;SDS011;23738;50.422;18.758;2023-11-19T03:06:29;88.60;;;40.00;;
37903;SDS011;23738;50.422;18.758;2023-11-19T03:08:58;98.00;;;41.00;;
37903;SDS011;23738;50.422;18.758;2023-11-19T03:11:33;91.00;;;41.40;;
37903;SDS011;23738;50.422;18.758;2023-11-19T03:14:02;91.10;;;40.20;;
37903;SDS011;23738;50.422;18.758;2023-11-19T03:16:32;88.80;;;40.70;;
37903;SDS011;23738;50.422;18.758;2023-11-19T03:19:02;87.30;;;38.40;;
37903;SDS011;23738;50.422;18.758;2023-11-19T03:21:31;84.00;;;38.40;;
37903;SDS011;23738;50.422;18.758;2023-11-19T03:24:01;88.60;;;38.10;;
37903;SDS011;23738;50.422;18.758;2023-11-19T03:26:31;85.10;;;36.80;;
37903;SDS011;23738;50.422;18.758;2023-11-19T03:29:01;83.40;;;37.90;;
37903;SDS011;23738;50.422;18.758;2023-11-19T03:31:31;82.10;;;38.40;;
37903;SDS011;23738;50.422;18.758;2023-11-19T03:34:00;81.00;;;38.30;;
37903;SDS011;23738;50.422;18.758;2023-11-19T03:36:33;89.70;;;41.30;;
37903;SDS011;23738;50.422;18.758;2023-11-19T03:39:03;85.30;;;40.40;;
37903;SDS011;23738;50.422;18.758;2023-11-19T03:41:33;92.20;;;38.50;;
37903;SDS011;23738;50.422;18.758;2023-11-19T03:44:03;84.50;;;36.20;;
37903;SDS011;23738;50.422;18.758;2023-11-19T03:46:33;75.70;;;35.60;;
37903;SDS011;23738;50.422;18.758;2023-11-19T03:49:03;84.90;;;36.90;;
37903;SDS011;23738;50.422;18.758;2023-11-19T03:51:33;79.30;;;36.30;;
37903;SDS011;23738;50.422;18.758;2023-11-19T03:54:03;75.40;;;35.90;;
37903;SDS011;23738;50.422;18.758;2023-11-19T03:56:34;82.50;;;38.30;;
37903;SDS011;23738;50.422;18.758;2023-11-19T03:59:05;78.60;;;37.40;;
37903;SDS011;23738;50.422;18.758;2023-11-19T04:01:36;77.90;;;37.30;;
37903;SDS011;23738;50.422;18.758;2023-11-19T04:04:06;77.20;;;34.00;;
37903;SDS011;23738;50.422;18.758;2023-11-19T04:06:35;73.10;;;34.50;;
37903;SDS011;23738;50.422;18.758;2023-11-19T04:09:05;76.40;;;34.60;;
37903;SDS011;23738;50.422;18.758;2023-11-19T04:11:35;70.60;;;32.70;;
37903;SDS011;23738;50.422;18.758;2023-11-19T04:14:06;76.70;;;33.40;;
37903;SDS011;23738;50.422;18.758;2023-11-19T04:16:36;73.20;;;33.20;;
37903;SDS011;23738;50.422;18.758;2023-11-19T04:19:06;76.60;;;34.70;;
37903;SDS011;23738;50.422;18.758;2023-11-19T04:21:35;76.60;;;36.30;;
37903;SDS011;23738;50.422;18.758;2023-11-19T04:24:08;75.50;;;35.60;;
37903;SDS011;23738;50.422;18.758;2023-11-19T04:26:41;69.30;;;33.90;;
37903;SDS011;23738;50.422;18.758;2023-11-19T04:29:12;70.50;;;33.20;;
37903;SDS011;23738;50.422;18.758;2023-11-19T04:31:43;66.80;;;32.20;;
37903;SDS011;23738;50.422;18.758;2023-11-19T04:34:13;71.70;;;33.20;;
37903;SDS011;23738;50.422;18.758;2023-11-19T04:36:42;70.10;;;35.00;;
37903;SDS011;23738;50.422;18.758;2023-11-19T04:39:12;72.00;;;34.40;;
37903;SDS011;23738;50.422;18.758;2023-11-19T04:41:48;73.20;;;34.80;;
37903;SDS011;23738;50.422;18.758;2023-11-19T04:44:19;74.80;;;33.80;;
37903;SDS011;23738;50.422;18.758;2023-11-19T04:46:49;71.40;;;35.90;;
37903;SDS011;23738;50.422;18.758;2023-11-19T04:49:19;73.90;;;33.90;;
37903;SDS011;23738;50.422;18.758;2023-11-19T04:51:49;63.90;;;30.10;;
37903;SDS011;23738;50.422;18.758;2023-11-19T04:54:18;62.90;;;30.20;;
37903;SDS011;23738;50.422;18.758;2023-11-19T04:56:48;63.20;;;30.90;;
37903;SDS011;23738;50.422;18.758;2023-11-19T04:59:18;64.40;;;32.10;;
37903;SDS011;23738;50.422;18.758;2023-11-19T05:01:48;63.80;;;32.10;;
37903;SDS011;23738;50.422;18.758;2023-11-19T05:04:17;72.20;;;34.10;;
37903;SDS011;23738;50.422;18.758;2023-11-19T05:06:47;68.90;;;33.20;;
37903;SDS011;23738;50.422;18.758;2023-11-19T05:09:17;65.30;;;34.00;;
37903;SDS011;23738;50.422;18.758;2023-11-19T05:11:46;70.80;;;31.00;;
37903;SDS011;23738;50.422;18.758;2023-11-19T05:14:16;63.10;;;31.10;;
37903;SDS011;23738;50.422;18.758;2023-11-19T05:16:46;60.10;;;31.40;;
37903;SDS011;23738;50.422;18.758;2023-11-19T05:19:16;57.70;;;28.30;;
37903;SDS011;23738;50.422;18.758;2023-11-19T05:21:46;62.10;;;30.40;;
37903;SDS011;23738;50.422;18.758;2023-11-19T05:24:19;67.30;;;33.90;;
37903;SDS011;23738;50.422;18.758;2023-11-19T05:26:48;73.70;;;34.40;;
37903;SDS011;23738;50.422;18.758;2023-11-19T05:29:19;78.30;;;35.10;;
37903;SDS011;23738;50.422;18.758;2023-11-19T05:31:49;68.90;;;33.20;;
37903;SDS011;23738;50.422;18.758;2023-11-19T05:34:18;80.60;;;33.10;;
37903;SDS011;23738;50.422;18.758;2023-11-19T05:36:48;69.60;;;30.80;;
37903;SDS011;23738;50.422;18.758;2023-11-19T05:39:18;73.00;;;32.40;;
37903;SDS011;23738;50.422;18.758;2023-11-19T05:41:48;72.50;;;31.60;;
37903;SDS011;23738;50.422;18.758;2023-11-19T05:44:18;76.90;;;34.70;;
37903;SDS011;23738;50.422;18.758;2023-11-19T05:46:48;80.80;;;35.40;;
37903;SDS011;23738;50.422;18.758;2023-11-19T05:49:18;74.30;;;34.80;;
37903;SDS011;23738;50.422;18.758;2023-11-19T05:51:47;67.20;;;31.90;;
37903;SDS011;23738;50.422;18.758;2023-11-19T05:54:17;68.80;;;30.20;;
37903;SDS011;23738;50.422;18.758;2023-11-19T05:56:48;59.40;;;28.20;;
37903;SDS011;23738;50.422;18.758;2023-11-19T05:59:20;70.70;;;32.00;;
37903;SDS011;23738;50.422;18.758;2023-11-19T06:01:51;67.50;;;30.30;;
37903;SDS011;23738;50.422;18.758;2023-11-19T06:04:21;69.20;;;33.20;;
37903;SDS011;23738;50.422;18.758;2023-11-19T06:06:50;74.90;;;33.10;;
37903;SDS011;23738;50.422;18.758;2023-11-19T06:09:21;66.50;;;32.10;;
37903;SDS011;23738;50.422;18.758;2023-11-19T06:11:51;64.80;;;32.00;;
37903;SDS011;23738;50.422;18.758;2023-11-19T06:14:22;64.50;;;28.90;;
37903;SDS011;23738;50.422;18.758;2023-11-19T06:16:51;59.30;;;28.90;;
37903;SDS011;23738;50.422;18.758;2023-11-19T06:19:21;56.60;;;26.80;;
37903;SDS011;23738;50.422;18.758;2023-11-19T06:21:51;47.10;;;24.60;;
37903;SDS011;23738;50.422;18.758;2023-11-19T06:24:21;54.70;;;27.30;;
37903;SDS011;23738;50.422;18.758;2023-11-19T06:26:51;56.30;;;28.90;;
37903;SDS011;23738;50.422;18.758;2023-11-19T06:29:20;51.90;;;27.90;;
37903;SDS011;23738;50.422;18.758;2023-11-19T06:31:50;59.10;;;28.00;;
37903;SDS011;23738;50.422;18.758;2023-11-19T06:34:20;55.50;;;26.90;;
37903;SDS011;23738;50.422;18.758;2023-11-19T06:36:49;55.30;;;27.80;;
37903;SDS011;23738;50.422;18.758;2023-11-19T06:39:19;63.30;;;30.10;;
37903;SDS011;23738;50.422;18.758;2023-11-19T06:41:48;58.70;;;30.60;;
37903;SDS011;23738;50.422;18.758;2023-11-19T06:44:18;51.60;;;29.20;;
37903;SDS011;23738;50.422;18.758;2023-11-19T06:46:49;53.40;;;29.10;;
37903;SDS011;23738;50.422;18.758;2023-11-19T06:49:21;53.10;;;29.50;;
37903;SDS011;23738;50.422;18.758;2023-11-19T06:51:51;49.50;;;28.50;;
37903;SDS011;23738;50.422;18.758;2023-11-19T06:54:21;53.50;;;28.00;;
37903;SDS011;23738;50.422;18.758;2023-11-19T06:56:50;48.10;;;27.60;;
37903;SDS011;23738;50.422;18.758;2023-11-19T06:59:20;59.70;;;31.30;;
37903;SDS011;23738;50.422;18.758;2023-11-19T07:01:50;56.70;;;29.20;;
37903;SDS011;23738;50.422;18.758;2023-11-19T07:04:19;52.30;;;28.70;;
37903;SDS011;23738;50.422;18.758;2023-11-19T07:06:49;54.30;;;30.40;;
37903;SDS011;23738;50.422;18.758;2023-11-19T07:09:20;44.70;;;25.20;;
37903;SDS011;23738;50.422;18.758;2023-11-19T07:11:49;46.20;;;25.50;;
37903;SDS011;23738;50.422;18.758;2023-11-19T07:14:20;51.30;;;26.50;;
37903;SDS011;23738;50.422;18.758;2023-11-19T07:16:50;45.90;;;23.80;;
37903;SDS011;23738;50.422;18.758;2023-11-19T07:19:20;45.50;;;26.00;;
37903;SDS011;23738;50.422;18.758;2023-11-19T07:21:50;50.00;;;26.20;;
37903;SDS011;23738;50.422;18.758;2023-11-19T07:24:21;54.70;;;30.40;;
37903;SDS011;23738;50.422;18.758;2023-11-19T07:26:51;94.60;;;43.90;;
37903;SDS011;23738;50.422;18.758;2023-11-19T07:29:20;78.10;;;39.90;;
37903;SDS011;23738;50.422;18.758;2023-11-19T07:31:50;84.00;;;37.80;;
37903;SDS011;23738;50.422;18.758;2023-11-19T07:34:20;69.90;;;34.70;;
37903;SDS011;23738;50.422;18.758;2023-11-19T07:36:50;62.80;;;32.90;;
37903;SDS011;23738;50.422;18.758;2023-11-19T07:39:20;60.50;;;32.00;;
37903;SDS011;23738;50.422;18.758;2023-11-19T07:41:50;58.10;;;30.90;;
37903;SDS011;23738;50.422;18.758;2023-11-19T07:44:19;53.30;;;30.40;;
37903;SDS011;23738;50.422;18.758;2023-11-19T07:46:49;52.60;;;30.50;;
37903;SDS011;23738;50.422;18.758;2023-11-19T07:49:18;52.10;;;30.00;;
37903;SDS011;23738;50.422;18.758;2023-11-19T07:51:48;54.70;;;28.50;;
37903;SDS011;23738;50.422;18.758;2023-11-19T07:54:18;55.20;;;29.80;;
37903;SDS011;23738;50.422;18.758;2023-11-19T07:56:48;54.00;;;27.70;;
37903;SDS011;23738;50.422;18.758;2023-11-19T07:59:18;43.70;;;25.00;;
37903;SDS011;23738;50.422;18.758;2023-11-19T08:01:48;46.60;;;26.50;;
37903;SDS011;23738;50.422;18.758;2023-11-19T08:04:18;38.50;;;25.00;;
37903;SDS011;23738;50.422;18.758;2023-11-19T08:06:47;43.60;;;25.90;;
37903;SDS011;23738;50.422;18.758;2023-11-19T08:09:17;43.50;;;24.70;;
37903;SDS011;23738;50.422;18.758;2023-11-19T08:11:47;40.30;;;24.10;;
37903;SDS011;23738;50.422;18.758;2023-11-19T08:14:17;45.00;;;23.80;;
37903;SDS011;23738;50.422;18.758;2023-11-19T08:16:47;38.50;;;22.70;;
37903;SDS011;23738;50.422;18.758;2023-11-19T08:19:17;45.40;;;25.80;;
37903;SDS011;23738;50.422;18.758;2023-11-19T08:21:46;51.70;;;30.00;;
37903;SDS011;23738;50.422;18.758;2023-11-19T08:24:16;73.40;;;37.90;;
37903;SDS011;23738;50.422;18.758;2023-11-19T08:26:46;65.70;;;36.10;;
37903;SDS011;23738;50.422;18.758;2023-11-19T08:29:16;57.60;;;29.40;;
37903;SDS011;23738;50.422;18.758;2023-11-19T08:31:45;39.40;;;23.10;;
37903;SDS011;23738;50.422;18.758;2023-11-19T08:34:16;37.90;;;22.40;;
37903;SDS011;23738;50.422;18.758;2023-11-19T08:36:46;34.90;;;21.00;;
37903;SDS011;23738;50.422;18.758;2023-11-19T08:39:20;38.60;;;22.80;;
37903;SDS011;23738;50.422;18.758;2023-11-19T08:41:49;56.20;;;31.30;;
37903;SDS011;23738;50.422;18.758;2023-11-19T08:44:19;42.20;;;25.20;;
37903;SDS011;23738;50.422;18.758;2023-11-19T08:46:49;43.50;;;25.00;;
37903;SDS011;23738;50.422;18.758;2023-11-19T08:49:19;40.50;;;24.50;;
37903;SDS011;23738;50.422;18.758;2023-11-19T08:51:49;40.40;;;22.40;;
37903;SDS011;23738;50.422;18.758;2023-11-19T08:54:19;49.50;;;25.40;;
37903;SDS011;23738;50.422;18.758;2023-11-19T08:56:49;39.50;;;22.80;;
37903;SDS011;23738;50.422;18.758;2023-11-19T08:59:19;40.60;;;24.50;;
37903;SDS011;23738;50.422;18.758;2023-11-19T09:01:48;50.90;;;26.40;;
37903;SDS011;23738;50.422;18.758;2023-11-19T09:04:18;48.80;;;25.70;;
37903;SDS011;23738;50.422;18.758;2023-11-19T09:06:49;46.10;;;24.10;;
37903;SDS011;23738;50.422;18.758;2023-11-19T09:09:19;44.90;;;23.50;;
37903;SDS011;23738;50.422;18.758;2023-11-19T09:11:49;43.80;;;22.50;;
37903;SDS011;23738;50.422;18.758;2023-11-19T09:14:19;46.00;;;24.90;;
37903;SDS011;23738;50.422;18.758;2023-11-19T09:16:52;47.60;;;25.70;;
37903;SDS011;23738;50.422;18.758;2023-11-19T09:19:22;72.80;;;31.10;;
37903;SDS011;23738;50.422;18.758;2023-11-19T09:21:52;63.10;;;30.50;;
37903;SDS011;23738;50.422;18.758;2023-11-19T09:24:22;65.40;;;30.80;;
37903;SDS011;23738;50.422;18.758;2023-11-19T09:26:52;61.00;;;30.80;;
37903;SDS011;23738;50.422;18.758;2023-11-19T09:29:23;49.60;;;26.00;;
37903;SDS011;23738;50.422;18.758;2023-11-19T09:31:52;53.30;;;28.30;;
37903;SDS011;23738;50.422;18.758;2023-11-19T09:34:22;50.70;;;25.90;;
37903;SDS011;23738;50.422;18.758;2023-11-19T09:36:52;39.90;;;22.60;;
37903;SDS011;23738;50.422;18.758;2023-11-19T09:39:22;46.60;;;23.20;;
37903;SDS011;23738;50.422;18.758;2023-11-19T09:41:52;45.20;;;24.30;;
37903;SDS011;23738;50.422;18.758;2023-11-19T09:44:22;42.20;;;23.10;;
37903;SDS011;23738;50.422;18.758;2023-11-19T09:46:51;37.90;;;20.60;;
37903;SDS011;23738;50.422;18.758;2023-11-19T09:49:21;52.70;;;26.90;;
37903;SDS011;23738;50.422;18.758;2023-11-19T09:51:55;47.60;;;25.20;;
37903;SDS011;23738;50.422;18.758;2023-11-19T09:54:25;52.50;;;27.70;;
37903;SDS011;23738;50.422;18.758;2023-11-19T09:56:55;41.40;;;22.50;;
37903;SDS011;23738;50.422;18.758;2023-11-19T09:59:30;46.50;;;25.50;;
37903;SDS011;23738;50.422;18.758;2023-11-19T10:02:00;36.10;;;21.40;;
37903;SDS011;23738;50.422;18.758;2023-11-19T10:04:31;40.00;;;22.10;;
37903;SDS011;23738;50.422;18.758;2023-11-19T10:07:05;40.50;;;21.20;;
37903;SDS011;23738;50.422;18.758;2023-11-19T10:09:36;38.90;;;20.40;;
37903;SDS011;23738;50.422;18.758;2023-11-19T10:12:06;35.20;;;20.50;;
37903;SDS011;23738;50.422;18.758;2023-11-19T10:14:36;39.10;;;22.80;;
37903;SDS011;23738;50.422;18.758;2023-11-19T10:17:08;42.10;;;22.60;;
37903;SDS011;23738;50.422;18.758;2023-11-19T10:19:38;37.50;;;21.90;;
37903;SDS011;23738;50.422;18.758;2023-11-19T10:22:09;40.10;;;21.20;;
37903;SDS011;23738;50.422;18.758;2023-11-19T10:24:41;34.20;;;20.50;;
37903;SDS011;23738;50.422;18.758;2023-11-19T10:27:11;34.20;;;20.00;;
37903;SDS011;23738;50.422;18.758;2023-11-19T10:29:41;32.60;;;20.30;;
37903;SDS011;23738;50.422;18.758;2023-11-19T10:32:15;37.40;;;21.20;;
37903;SDS011;23738;50.422;18.758;2023-11-19T10:34:45;41.50;;;23.20;;
37903;SDS011;23738;50.422;18.758;2023-11-19T10:37:28;40.70;;;24.00;;
37903;SDS011;23738;50.422;18.758;2023-11-19T10:39:59;50.70;;;26.60;;
37903;SDS011;23738;50.422;18.758;2023-11-19T10:42:31;35.20;;;20.30;;
37903;SDS011;23738;50.422;18.758;2023-11-19T10:45:01;38.50;;;21.60;;
37903;SDS011;23738;50.422;18.758;2023-11-19T10:47:32;39.90;;;21.40;;
37903;SDS011;23738;50.422;18.758;2023-11-19T10:50:03;43.50;;;24.20;;
37903;SDS011;23738;50.422;18.758;2023-11-19T10:52:34;45.00;;;25.10;;
37903;SDS011;23738;50.422;18.758;2023-11-19T10:55:06;43.20;;;23.20;;
37903;SDS011;23738;50.422;18.758;2023-11-19T10:57:41;48.60;;;22.40;;
37903;SDS011;23738;50.422;18.758;2023-11-19T11:00:15;41.90;;;22.00;;
37903;SDS011;23738;50.422;18.758;2023-11-19T11:02:50;38.20;;;22.50;;
37903;SDS011;23738;50.422;18.758;2023-11-19T11:05:24;36.80;;;21.40;;
37903;SDS011;23738;50.422;18.758;2023-11-19T11:07:56;37.00;;;20.50;;
37903;SDS011;23738;50.422;18.758;2023-11-19T11:10:28;37.00;;;22.20;;
37903;SDS011;23738;50.422;18.758;2023-11-19T11:13:03;36.10;;;21.20;;
37903;SDS011;23738;50.422;18.758;2023-11-19T11:15:33;34.80;;;20.50;;
37903;SDS011;23738;50.422;18.758;2023-11-19T11:18:03;40.80;;;22.40;;
37903;SDS011;23738;50.422;18.758;2023-11-19T11:20:36;43.90;;;24.80;;
37903;SDS011;23738;50.422;18.758;2023-11-19T11:23:11;40.30;;;22.30;;
37903;SDS011;23738;50.422;18.758;2023-11-19T11:25:57;44.10;;;23.20;;
37903;SDS011;23738;50.422;18.758;2023-11-19T11:28:39;34.90;;;21.20;;
37903;SDS011;23738;50.422;18.758;2023-11-19T11:31:19;36.90;;;22.00;;
37903;SDS011;23738;50.422;18.758;2023-11-19T11:34:24;36.20;;;21.50;;
37903;SDS011;23738;50.422;18.758;2023-11-19T11:37:20;41.60;;;20.90;;
37903;SDS011;23738;50.422;18.758;2023-11-19T11:39:59;40.20;;;21.80;;
37903;SDS011;23738;50.422;18.758;2023-11-19T11:42:37;41.00;;;23.00;;
37903;SDS011;23738;50.422;18.758;2023-11-19T11:45:07;59.60;;;28.10;;
37903;SDS011;23738;50.422;18.758;2023-11-19T11:53:23;48.00;;;22.90;;
37903;SDS011;23738;50.422;18.758;2023-11-19T11:55:54;60.00;;;23.60;;
37903;SDS011;23738;50.422;18.758;2023-11-19T11:58:32;53.80;;;22.80;;
37903;SDS011;23738;50.422;18.758;2023-11-19T12:01:04;51.60;;;24.60;;
37903;SDS011;23738;50.422;18.758;2023-11-19T12:03:36;51.50;;;22.80;;
37903;SDS011;23738;50.422;18.758;2023-11-19T12:06:07;46.10;;;23.30;;
37903;SDS011;23738;50.422;18.758;2023-11-19T12:08:38;53.30;;;24.70;;
37903;SDS011;23738;50.422;18.758;2023-11-19T12:11:08;53.80;;;22.80;;
37903;SDS011;23738;50.422;18.758;2023-11-19T12:13:47;45.80;;;22.60;;
37903;SDS011;23738;50.422;18.758;2023-11-19T12:16:29;50.00;;;25.60;;
37903;SDS011;23738;50.422;18.758;2023-11-19T12:19:03;60.20;;;27.60;;
37903;SDS011;23738;50.422;18.758;2023-11-19T12:21:34;55.30;;;28.10;;
37903;SDS011;23738;50.422;18.758;2023-11-19T12:24:05;53.50;;;27.20;;
37903;SDS011;23738;50.422;18.758;2023-11-19T12:26:37;54.90;;;27.00;;
37903;SDS011;23738;50.422;18.758;2023-11-19T12:29:07;52.00;;;27.50;;
37903;SDS011;23738;50.422;18.758;2023-11-19T12:31:37;47.30;;;26.90;;
37903;SDS011;23738;50.422;18.758;2023-11-19T12:34:11;59.60;;;29.50;;
37903;SDS011;23738;50.422;18.758;2023-11-19T12:36:41;61.60;;;29.70;;
37903;SDS011;23738;50.422;18.758;2023-11-19T12:39:11;61.00;;;30.30;;
37903;SDS011;23738;50.422;18.758;2023-11-19T12:41:53;59.70;;;31.50;;
37903;SDS011;23738;50.422;18.758;2023-11-19T12:44:25;60.20;;;29.30;;
37903;SDS011;23738;50.422;18.758;2023-11-19T12:47:03;44.90;;;24.70;;
37903;SDS011;23738;50.422;18.758;2023-11-19T12:49:33;56.10;;;26.20;;
37903;SDS011;23738;50.422;18.758;2023-11-19T12:52:10;49.10;;;25.30;;
37903;SDS011;23738;50.422;18.758;2023-11-19T12:54:41;46.50;;;26.70;;
37903;SDS011;23738;50.422;18.758;2023-11-19T12:57:10;58.10;;;29.60;;
37903;SDS011;23738;50.422;18.758;2023-11-19T12:59:40;50.70;;;27.60;;
37903;SDS011;23738;50.422;18.758;2023-11-19T13:02:11;52.10;;;27.10;;
37903;SDS011;23738;50.422;18.758;2023-11-19T13:04:41;47.00;;;24.00;;
37903;SDS011;23738;50.422;18.758;2023-11-19T13:07:10;47.10;;;23.70;;
37903;SDS011;23738;50.422;18.758;2023-11-19T13:09:40;41.70;;;23.40;;
37903;SDS011;23738;50.422;18.758;2023-11-19T13:12:14;49.10;;;25.80;;
37903;SDS011;23738;50.422;18.758;2023-11-19T13:14:44;41.80;;;24.80;;
37903;SDS011;23738;50.422;18.758;2023-11-19T13:17:16;50.40;;;28.00;;
37903;SDS011;23738;50.422;18.758;2023-11-19T13:19:48;44.10;;;25.30;;
37903;SDS011;23738;50.422;18.758;2023-11-19T13:22:19;42.90;;;23.40;;
37903;SDS011;23738;50.422;18.758;2023-11-19T13:24:48;46.60;;;24.80;;
37903;SDS011;23738;50.422;18.758;2023-11-19T13:27:18;49.80;;;25.80;;
37903;SDS011;23738;50.422;18.758;2023-11-19T13:29:47;48.40;;;26.00;;
37903;SDS011;23738;50.422;18.758;2023-11-19T13:32:17;45.30;;;25.50;;
37903;SDS011;23738;50.422;18.758;2023-11-19T13:34:46;43.90;;;25.30;;
37903;SDS011;23738;50.422;18.758;2023-11-19T13:37:16;51.30;;;25.70;;
37903;SDS011;23738;50.422;18.758;2023-11-19T13:39:46;45.80;;;24.40;;
37903;SDS011;23738;50.422;18.758;2023-11-19T13:42:16;41.30;;;22.70;;
37903;SDS011;23738;50.422;18.758;2023-11-19T13:44:47;41.90;;;24.60;;
37903;SDS011;23738;50.422;18.758;2023-11-19T13:47:16;44.40;;;23.50;;
37903;SDS011;23738;50.422;18.758;2023-11-19T13:49:46;46.80;;;27.10;;
37903;SDS011;23738;50.422;18.758;2023-11-19T13:52:16;45.50;;;24.80;;
37903;SDS011;23738;50.422;18.758;2023-11-19T13:54:45;51.20;;;27.70;;
37903;SDS011;23738;50.422;18.758;2023-11-19T13:57:16;50.00;;;26.40;;
37903;SDS011;23738;50.422;18.758;2023-11-19T13:59:46;56.60;;;29.90;;
37903;SDS011;23738;50.422;18.758;2023-11-19T14:02:16;55.40;;;28.90;;
37903;SDS011;23738;50.422;18.758;2023-11-19T14:04:45;51.80;;;28.20;;
37903;SDS011;23738;50.422;18.758;2023-11-19T14:07:15;54.30;;;26.80;;
37903;SDS011;23738;50.422;18.758;2023-11-19T14:09:45;45.20;;;25.30;;
37903;SDS011;23738;50.422;18.758;2023-11-19T14:12:14;39.30;;;22.40;;
37903;SDS011;23738;50.422;18.758;2023-11-19T14:14:44;41.30;;;21.30;;
37903;SDS011;23738;50.422;18.758;2023-11-19T14:17:14;32.60;;;18.90;;
37903;SDS011;23738;50.422;18.758;2023-11-19T14:19:43;35.60;;;19.80;;
37903;SDS011;23738;50.422;18.758;2023-11-19T14:22:14;36.50;;;20.70;;
37903;SDS011;23738;50.422;18.758;2023-11-19T14:24:43;36.90;;;21.70;;
37903;SDS011;23738;50.422;18.758;2023-11-19T14:27:13;39.70;;;23.00;;
37903;SDS011;23738;50.422;18.758;2023-11-19T14:29:43;34.70;;;19.40;;
37903;SDS011;23738;50.422;18.758;2023-11-19T14:32:13;26.30;;;16.70;;